sensor_id;sensor_type;location;lat;lon;timestamp;P1;durP1;ratioP1;P2;durP2;ratioP2
10557;SDS011;5327;47.238;-2.304;2022-07-09T00:01:24;4.93;;;2.30;;
10557;SDS011;5327;47.238;-2.304;2022-07-09T00:03:51;3.30;;;2.57;;
10557;SDS011;5327;47.238;-2.304;2022-07-09T00:06:17;3.40;;;2.50;;
10557;SDS011;5327;47.238;-2.304;2022-07-09T00:08:43;2.97;;;2.70;;
10557;SDS011;5327;47.238;-2.304;2022-07-09T00:11:09;3.47;;;2.80;;
10557;SDS011;5327;47.238;-2.304;2022-07-09T00:13:35;3.57;;;2.60;;
10557;SDS011;5327;47.238;-2.304;2022-07-09T00:16:01;2.80;;;2.50;;
10557;SDS011;5327;47.238;-2.304;2022-07-09T00:18:28;4.90;;;2.63;;
10557;SDS011;5327;47.238;-2.304;2022-07-09T00:20:54;2.50;;;2.30;;
10557;SDS011;5327;47.238;-2.304;2022-07-09T00:23:21;3.07;;;2.67;;
10557;SDS011;5327;47.238;-2.304;2022-07-09T00:25:47;5.53;;;2.40;;
10557;SDS011;5327;47.238;-2.304;2022-07-09T00:28:13;3.17;;;2.50;;
10557;SDS011;5327;47.238;-2.304;2022-07-09T00:30:39;3.93;;;2.87;;
10557;SDS011;5327;47.238;-2.304;2022-07-09T00:33:05;3.87;;;2.60;;
10557;SDS011;5327;47.238;-2.304;2022-07-09T00:35:31;2.30;;;2.10;;
10557;SDS011;5327;47.238;-2.304;2022-07-09T00:37:57;8.80;;;2.50;;
10557;SDS011;5327;47.238;-2.304;2022-07-09T00:40:23;4.30;;;2.80;;
10557;SDS011;5327;47.238;-2.304;2022-07-09T00:42:49;2.87;;;2.60;;
10557;SDS011;5327;47.238;-2.304;2022-07-09T00:45:15;2.77;;;2.57;;
10557;SDS011;5327;47.238;-2.304;2022-07-09T00:47:42;2.93;;;2.73;;
10557;SDS011;5327;47.238;-2.304;2022-07-09T00:50:09;2.40;;;2.23;;
10557;SDS011;5327;47.238;-2.304;2022-07-09T00:52:35;6.63;;;2.87;;
10557;SDS011;5327;47.238;-2.304;2022-07-09T00:55:02;4.07;;;2.10;;
10557;SDS011;5327;47.238;-2.304;2022-07-09T00:57:29;3.43;;;2.30;;
10557;SDS011;5327;47.238;-2.304;2022-07-09T00:59:55;2.57;;;2.37;;
10557;SDS011;5327;47.238;-2.304;2022-07-09T01:02:22;2.97;;;2.67;;
10557;SDS011;5327;47.238;-2.304;2022-07-09T01:04:48;2.67;;;2.47;;
10557;SDS011;5327;47.238;-2.304;2022-07-09T01:07:14;3.23;;;2.93;;
10557;SDS011;5327;47.238;-2.304;2022-07-09T01:09:40;2.73;;;2.27;;
10557;SDS011;5327;47.238;-2.304;2022-07-09T01:12:07;2.90;;;2.33;;
10557;SDS011;5327;47.238;-2.304;2022-07-09T01:14:33;4.23;;;2.83;;
10557;SDS011;5327;47.238;-2.304;2022-07-09T01:17:00;2.93;;;2.10;;
10557;SDS011;5327;47.238;-2.304;2022-07-09T01:19:30;3.27;;;2.83;;
10557;SDS011;5327;47.238;-2.304;2022-07-09T01:21:56;2.90;;;2.70;;
10557;SDS011;5327;47.238;-2.304;2022-07-09T01:24:22;7.00;;;3.10;;
10557;SDS011;5327;47.238;-2.304;2022-07-09T01:26:49;3.30;;;2.50;;
10557;SDS011;5327;47.238;-2.304;2022-07-09T01:29:16;3.20;;;2.90;;
10557;SDS011;5327;47.238;-2.304;2022-07-09T01:31:42;3.53;;;2.90;;
10557;SDS011;5327;47.238;-2.304;2022-07-09T01:34:08;3.20;;;2.40;;
10557;SDS011;5327;47.238;-2.304;2022-07-09T01:36:35;6.53;;;2.33;;
10557;SDS011;5327;47.238;-2.304;2022-07-09T01:39:01;4.13;;;3.17;;
10557;SDS011;5327;47.238;-2.304;2022-07-09T01:41:27;3.53;;;2.60;;
10557;SDS011;5327;47.238;-2.304;2022-07-09T01:43:53;3.10;;;2.73;;
10557;SDS011;5327;47.238;-2.304;2022-07-09T01:46:19;5.00;;;2.40;;
10557;SDS011;5327;47.238;-2.304;2022-07-09T01:48:45;3.10;;;2.80;;
10557;SDS011;5327;47.238;-2.304;2022-07-09T01:51:14;5.20;;;3.10;;
10557;SDS011;5327;47.238;-2.304;2022-07-09T01:53:40;4.43;;;2.80;;
10557;SDS011;5327;47.238;-2.304;2022-07-09T01:56:06;4.23;;;2.67;;
10557;SDS011;5327;47.238;-2.304;2022-07-09T01:58:33;3.00;;;2.70;;
10557;SDS011;5327;47.238;-2.304;2022-07-09T02:00:59;2.97;;;2.50;;
10557;SDS011;5327;47.238;-2.304;2022-07-09T02:03:25;3.63;;;2.60;;
10557;SDS011;5327;47.238;-2.304;2022-07-09T02:05:51;5.60;;;5.10;;
10557;SDS011;5327;47.238;-2.304;2022-07-09T02:08:17;4.20;;;2.77;;
10557;SDS011;5327;47.238;-2.304;2022-07-09T02:10:43;3.40;;;2.87;;
10557;SDS011;5327;47.238;-2.304;2022-07-09T02:13:11;3.30;;;2.67;;
10557;SDS011;5327;47.238;-2.304;2022-07-09T02:15:37;3.30;;;3.00;;
10557;SDS011;5327;47.238;-2.304;2022-07-09T02:18:04;3.97;;;2.77;;
10557;SDS011;5327;47.238;-2.304;2022-07-09T02:20:30;4.13;;;2.90;;
10557;SDS011;5327;47.238;-2.304;2022-07-09T02:22:57;3.40;;;3.10;;
10557;SDS011;5327;47.238;-2.304;2022-07-09T02:25:23;8.70;;;3.10;;
10557;SDS011;5327;47.238;-2.304;2022-07-09T02:27:49;3.53;;;3.03;;
10557;SDS011;5327;47.238;-2.304;2022-07-09T02:30:15;6.37;;;2.90;;
10557;SDS011;5327;47.238;-2.304;2022-07-09T02:32:41;3.60;;;3.40;;
10557;SDS011;5327;47.238;-2.304;2022-07-09T02:35:07;4.40;;;3.50;;
10557;SDS011;5327;47.238;-2.304;2022-07-09T02:37:33;4.90;;;2.73;;
10557;SDS011;5327;47.238;-2.304;2022-07-09T02:40:00;4.87;;;3.10;;
10557;SDS011;5327;47.238;-2.304;2022-07-09T02:42:26;4.63;;;3.10;;
10557;SDS011;5327;47.238;-2.304;2022-07-09T02:44:52;4.30;;;2.83;;
10557;SDS011;5327;47.238;-2.304;2022-07-09T02:47:18;3.47;;;2.97;;
10557;SDS011;5327;47.238;-2.304;2022-07-09T02:49:44;4.30;;;3.30;;
10557;SDS011;5327;47.238;-2.304;2022-07-09T02:52:10;4.00;;;3.70;;
10557;SDS011;5327;47.238;-2.304;2022-07-09T02:54:36;5.33;;;3.70;;
10557;SDS011;5327;47.238;-2.304;2022-07-09T02:57:02;3.97;;;3.67;;
10557;SDS011;5327;47.238;-2.304;2022-07-09T02:59:28;4.23;;;3.57;;
10557;SDS011;5327;47.238;-2.304;2022-07-09T03:01:55;6.10;;;3.60;;
10557;SDS011;5327;47.238;-2.304;2022-07-09T03:04:21;7.80;;;3.87;;
10557;SDS011;5327;47.238;-2.304;2022-07-09T03:06:47;3.77;;;3.47;;
10557;SDS011;5327;47.238;-2.304;2022-07-09T03:09:13;5.70;;;4.43;;
10557;SDS011;5327;47.238;-2.304;2022-07-09T03:11:40;14.40;;;3.90;;
10557;SDS011;5327;47.238;-2.304;2022-07-09T03:14:06;5.50;;;4.60;;
10557;SDS011;5327;47.238;-2.304;2022-07-09T03:16:32;7.77;;;3.90;;
10557;SDS011;5327;47.238;-2.304;2022-07-09T03:18:58;5.70;;;4.00;;
10557;SDS011;5327;47.238;-2.304;2022-07-09T03:21:24;4.43;;;4.00;;
10557;SDS011;5327;47.238;-2.304;2022-07-09T03:23:50;4.67;;;4.27;;
10557;SDS011;5327;47.238;-2.304;2022-07-09T03:26:16;5.87;;;4.37;;
10557;SDS011;5327;47.238;-2.304;2022-07-09T03:28:42;6.87;;;4.57;;
10557;SDS011;5327;47.238;-2.304;2022-07-09T03:31:08;5.50;;;4.30;;
10557;SDS011;5327;47.238;-2.304;2022-07-09T03:33:34;4.23;;;3.90;;
10557;SDS011;5327;47.238;-2.304;2022-07-09T03:36:00;4.97;;;4.40;;
10557;SDS011;5327;47.238;-2.304;2022-07-09T03:38:26;5.53;;;4.97;;
10557;SDS011;5327;47.238;-2.304;2022-07-09T03:40:52;4.70;;;4.30;;
10557;SDS011;5327;47.238;-2.304;2022-07-09T03:43:18;9.40;;;4.90;;
10557;SDS011;5327;47.238;-2.304;2022-07-09T03:45:45;4.07;;;3.77;;
10557;SDS011;5327;47.238;-2.304;2022-07-09T03:48:11;7.00;;;5.37;;
10557;SDS011;5327;47.238;-2.304;2022-07-09T03:50:37;4.80;;;4.40;;
10557;SDS011;5327;47.238;-2.304;2022-07-09T03:53:03;6.03;;;4.70;;
10557;SDS011;5327;47.238;-2.304;2022-07-09T03:55:29;6.13;;;5.33;;
10557;SDS011;5327;47.238;-2.304;2022-07-09T03:57:55;7.40;;;6.30;;
10557;SDS011;5327;47.238;-2.304;2022-07-09T04:00:21;6.63;;;5.40;;
10557;SDS011;5327;47.238;-2.304;2022-07-09T04:02:47;7.27;;;6.47;;
10557;SDS011;5327;47.238;-2.304;2022-07-09T04:05:13;5.50;;;5.00;;
10557;SDS011;5327;47.238;-2.304;2022-07-09T04:07:40;7.17;;;5.47;;
10557;SDS011;5327;47.238;-2.304;2022-07-09T04:10:07;6.17;;;4.90;;
10557;SDS011;5327;47.238;-2.304;2022-07-09T04:12:33;6.40;;;5.80;;
10557;SDS011;5327;47.238;-2.304;2022-07-09T04:14:59;6.47;;;5.47;;
10557;SDS011;5327;47.238;-2.304;2022-07-09T04:17:25;5.87;;;5.30;;
10557;SDS011;5327;47.238;-2.304;2022-07-09T04:19:51;5.37;;;4.87;;
10557;SDS011;5327;47.238;-2.304;2022-07-09T04:22:17;8.87;;;6.10;;
10557;SDS011;5327;47.238;-2.304;2022-07-09T04:24:43;7.30;;;6.37;;
10557;SDS011;5327;47.238;-2.304;2022-07-09T04:27:09;6.70;;;6.00;;
10557;SDS011;5327;47.238;-2.304;2022-07-09T04:29:35;8.33;;;6.33;;
10557;SDS011;5327;47.238;-2.304;2022-07-09T04:32:01;9.50;;;6.73;;
10557;SDS011;5327;47.238;-2.304;2022-07-09T04:34:27;7.40;;;5.90;;
10557;SDS011;5327;47.238;-2.304;2022-07-09T04:36:53;6.00;;;5.30;;
10557;SDS011;5327;47.238;-2.304;2022-07-09T04:39:20;6.73;;;6.10;;
10557;SDS011;5327;47.238;-2.304;2022-07-09T04:41:47;8.70;;;5.97;;
10557;SDS011;5327;47.238;-2.304;2022-07-09T04:44:13;7.23;;;6.07;;
10557;SDS011;5327;47.238;-2.304;2022-07-09T04:46:41;6.30;;;5.50;;
10557;SDS011;5327;47.238;-2.304;2022-07-09T04:49:08;13.30;;;6.80;;
10557;SDS011;5327;47.238;-2.304;2022-07-09T04:51:34;6.57;;;5.87;;
10557;SDS011;5327;47.238;-2.304;2022-07-09T04:54:00;6.53;;;5.60;;
10557;SDS011;5327;47.238;-2.304;2022-07-09T04:56:26;9.50;;;6.87;;
10557;SDS011;5327;47.238;-2.304;2022-07-09T04:58:52;8.20;;;5.73;;
10557;SDS011;5327;47.238;-2.304;2022-07-09T05:01:19;7.27;;;6.57;;
10557;SDS011;5327;47.238;-2.304;2022-07-09T05:03:45;6.27;;;5.67;;
10557;SDS011;5327;47.238;-2.304;2022-07-09T05:06:15;6.80;;;6.20;;
10557;SDS011;5327;47.238;-2.304;2022-07-09T05:08:41;6.57;;;5.97;;
10557;SDS011;5327;47.238;-2.304;2022-07-09T05:11:08;5.67;;;5.03;;
10557;SDS011;5327;47.238;-2.304;2022-07-09T05:13:35;6.60;;;6.00;;
10557;SDS011;5327;47.238;-2.304;2022-07-09T05:16:01;5.10;;;4.60;;
10557;SDS011;5327;47.238;-2.304;2022-07-09T05:18:27;6.37;;;4.97;;
10557;SDS011;5327;47.238;-2.304;2022-07-09T05:20:55;4.60;;;4.20;;
10557;SDS011;5327;47.238;-2.304;2022-07-09T05:23:22;5.40;;;4.57;;
10557;SDS011;5327;47.238;-2.304;2022-07-09T05:25:48;5.67;;;5.10;;
10557;SDS011;5327;47.238;-2.304;2022-07-09T05:28:14;4.63;;;4.23;;
10557;SDS011;5327;47.238;-2.304;2022-07-09T05:30:40;11.00;;;4.80;;
10557;SDS011;5327;47.238;-2.304;2022-07-09T05:33:07;6.63;;;4.27;;
10557;SDS011;5327;47.238;-2.304;2022-07-09T05:35:33;5.20;;;4.13;;
10557;SDS011;5327;47.238;-2.304;2022-07-09T05:37:59;4.70;;;3.93;;
10557;SDS011;5327;47.238;-2.304;2022-07-09T05:40:25;4.87;;;4.47;;
10557;SDS011;5327;47.238;-2.304;2022-07-09T05:42:51;3.60;;;3.30;;
10557;SDS011;5327;47.238;-2.304;2022-07-09T05:45:18;4.00;;;3.60;;
10557;SDS011;5327;47.238;-2.304;2022-07-09T05:47:44;4.30;;;3.87;;
10557;SDS011;5327;47.238;-2.304;2022-07-09T05:50:10;4.83;;;3.93;;
10557;SDS011;5327;47.238;-2.304;2022-07-09T05:52:36;6.23;;;4.07;;
10557;SDS011;5327;47.238;-2.304;2022-07-09T05:55:02;4.93;;;3.80;;
10557;SDS011;5327;47.238;-2.304;2022-07-09T05:57:29;4.23;;;3.80;;
10557;SDS011;5327;47.238;-2.304;2022-07-09T05:59:55;6.50;;;3.70;;
10557;SDS011;5327;47.238;-2.304;2022-07-09T06:02:21;3.83;;;3.40;;
10557;SDS011;5327;47.238;-2.304;2022-07-09T06:04:48;4.03;;;3.30;;
10557;SDS011;5327;47.238;-2.304;2022-07-09T06:07:14;3.47;;;3.20;;
10557;SDS011;5327;47.238;-2.304;2022-07-09T06:09:40;6.23;;;3.77;;
10557;SDS011;5327;47.238;-2.304;2022-07-09T06:12:06;3.57;;;3.27;;
10557;SDS011;5327;47.238;-2.304;2022-07-09T06:14:33;3.23;;;3.00;;
10557;SDS011;5327;47.238;-2.304;2022-07-09T06:16:59;5.03;;;3.10;;
10557;SDS011;5327;47.238;-2.304;2022-07-09T06:19:32;3.47;;;3.17;;
10557;SDS011;5327;47.238;-2.304;2022-07-09T06:21:58;3.60;;;3.20;;
10557;SDS011;5327;47.238;-2.304;2022-07-09T06:24:24;3.90;;;3.50;;
10557;SDS011;5327;47.238;-2.304;2022-07-09T06:26:50;4.90;;;2.93;;
10557;SDS011;5327;47.238;-2.304;2022-07-09T06:29:16;5.40;;;2.83;;
10557;SDS011;5327;47.238;-2.304;2022-07-09T06:31:42;3.23;;;2.60;;
10557;SDS011;5327;47.238;-2.304;2022-07-09T06:34:08;3.53;;;2.50;;
10557;SDS011;5327;47.238;-2.304;2022-07-09T06:36:35;3.77;;;3.40;;
10557;SDS011;5327;47.238;-2.304;2022-07-09T06:39:01;3.43;;;2.90;;
10557;SDS011;5327;47.238;-2.304;2022-07-09T06:41:46;4.20;;;3.10;;
10557;SDS011;5327;47.238;-2.304;2022-07-09T06:44:12;3.50;;;3.00;;
10557;SDS011;5327;47.238;-2.304;2022-07-09T06:46:38;3.77;;;3.47;;
10557;SDS011;5327;47.238;-2.304;2022-07-09T06:49:04;3.70;;;3.40;;
10557;SDS011;5327;47.238;-2.304;2022-07-09T06:51:31;4.57;;;3.90;;
10557;SDS011;5327;47.238;-2.304;2022-07-09T06:53:57;5.03;;;3.10;;
10557;SDS011;5327;47.238;-2.304;2022-07-09T06:56:23;4.40;;;4.00;;
10557;SDS011;5327;47.238;-2.304;2022-07-09T06:58:49;3.00;;;2.80;;
10557;SDS011;5327;47.238;-2.304;2022-07-09T07:01:15;2.87;;;2.63;;
10557;SDS011;5327;47.238;-2.304;2022-07-09T07:03:41;2.80;;;2.60;;
10557;SDS011;5327;47.238;-2.304;2022-07-09T07:06:07;2.43;;;2.23;;
10557;SDS011;5327;47.238;-2.304;2022-07-09T07:08:33;7.03;;;3.53;;
10557;SDS011;5327;47.238;-2.304;2022-07-09T07:10:59;2.40;;;2.20;;
10557;SDS011;5327;47.238;-2.304;2022-07-09T07:13:26;2.90;;;2.70;;
10557;SDS011;5327;47.238;-2.304;2022-07-09T07:15:52;4.93;;;2.87;;
10557;SDS011;5327;47.238;-2.304;2022-07-09T07:18:18;5.70;;;2.60;;
10557;SDS011;5327;47.238;-2.304;2022-07-09T07:20:44;3.17;;;2.87;;
10557;SDS011;5327;47.238;-2.304;2022-07-09T07:23:10;4.10;;;2.47;;
10557;SDS011;5327;47.238;-2.304;2022-07-09T07:25:36;3.63;;;2.50;;
10557;SDS011;5327;47.238;-2.304;2022-07-09T07:28:02;3.67;;;2.67;;
10557;SDS011;5327;47.238;-2.304;2022-07-09T07:30:29;3.60;;;2.43;;
10557;SDS011;5327;47.238;-2.304;2022-07-09T07:32:58;2.57;;;2.37;;
10557;SDS011;5327;47.238;-2.304;2022-07-09T07:35:24;4.00;;;2.17;;
10557;SDS011;5327;47.238;-2.304;2022-07-09T07:37:50;2.73;;;2.40;;
10557;SDS011;5327;47.238;-2.304;2022-07-09T07:40:16;3.50;;;2.60;;
10557;SDS011;5327;47.238;-2.304;2022-07-09T07:42:42;2.60;;;2.20;;
10557;SDS011;5327;47.238;-2.304;2022-07-09T07:45:09;4.17;;;3.03;;
10557;SDS011;5327;47.238;-2.304;2022-07-09T07:47:35;2.30;;;2.10;;
10557;SDS011;5327;47.238;-2.304;2022-07-09T07:50:01;2.63;;;2.40;;
10557;SDS011;5327;47.238;-2.304;2022-07-09T07:52:27;2.17;;;2.03;;
10557;SDS011;5327;47.238;-2.304;2022-07-09T07:54:53;2.27;;;2.17;;
10557;SDS011;5327;47.238;-2.304;2022-07-09T07:57:19;4.70;;;2.47;;
10557;SDS011;5327;47.238;-2.304;2022-07-09T07:59:45;3.20;;;2.60;;
10557;SDS011;5327;47.238;-2.304;2022-07-09T08:02:11;2.80;;;2.03;;
10557;SDS011;5327;47.238;-2.304;2022-07-09T08:04:38;2.67;;;1.60;;
10557;SDS011;5327;47.238;-2.304;2022-07-09T08:07:04;2.30;;;2.10;;
10557;SDS011;5327;47.238;-2.304;2022-07-09T08:09:30;4.50;;;2.30;;
10557;SDS011;5327;47.238;-2.304;2022-07-09T08:11:57;2.30;;;2.10;;
10557;SDS011;5327;47.238;-2.304;2022-07-09T08:14:24;4.83;;;2.17;;
10557;SDS011;5327;47.238;-2.304;2022-07-09T08:16:50;2.17;;;2.00;;
10557;SDS011;5327;47.238;-2.304;2022-07-09T08:19:16;2.20;;;2.00;;
10557;SDS011;5327;47.238;-2.304;2022-07-09T08:21:42;5.50;;;2.33;;
10557;SDS011;5327;47.238;-2.304;2022-07-09T08:24:08;2.60;;;2.40;;
10557;SDS011;5327;47.238;-2.304;2022-07-09T08:26:34;2.73;;;2.10;;
10557;SDS011;5327;47.238;-2.304;2022-07-09T08:29:00;2.13;;;1.97;;
10557;SDS011;5327;47.238;-2.304;2022-07-09T08:31:26;2.50;;;1.60;;
10557;SDS011;5327;47.238;-2.304;2022-07-09T08:33:52;2.20;;;2.10;;
10557;SDS011;5327;47.238;-2.304;2022-07-09T08:36:20;2.10;;;2.00;;
10557;SDS011;5327;47.238;-2.304;2022-07-09T08:38:46;2.43;;;1.90;;
10557;SDS011;5327;47.238;-2.304;2022-07-09T08:41:14;2.80;;;2.03;;
10557;SDS011;5327;47.238;-2.304;2022-07-09T08:43:44;2.17;;;1.97;;
10557;SDS011;5327;47.238;-2.304;2022-07-09T08:46:14;3.33;;;2.23;;
10557;SDS011;5327;47.238;-2.304;2022-07-09T08:48:40;1.73;;;1.57;;
10557;SDS011;5327;47.238;-2.304;2022-07-09T08:51:08;2.30;;;2.00;;
10557;SDS011;5327;47.238;-2.304;2022-07-09T08:53:34;2.03;;;1.70;;
10557;SDS011;5327;47.238;-2.304;2022-07-09T08:56:00;3.60;;;1.70;;
10557;SDS011;5327;47.238;-2.304;2022-07-09T08:58:26;1.73;;;1.63;;
10557;SDS011;5327;47.238;-2.304;2022-07-09T09:00:52;2.00;;;1.60;;
10557;SDS011;5327;47.238;-2.304;2022-07-09T09:03:18;2.50;;;1.70;;
10557;SDS011;5327;47.238;-2.304;2022-07-09T09:05:44;4.27;;;1.73;;
10557;SDS011;5327;47.238;-2.304;2022-07-09T09:08:17;2.17;;;1.97;;
10557;SDS011;5327;47.238;-2.304;2022-07-09T09:10:45;2.20;;;1.23;;
10557;SDS011;5327;47.238;-2.304;2022-07-09T09:13:13;4.57;;;1.93;;
10557;SDS011;5327;47.238;-2.304;2022-07-09T09:15:40;1.90;;;1.73;;
10557;SDS011;5327;47.238;-2.304;2022-07-09T09:18:06;2.57;;;1.57;;
10557;SDS011;5327;47.238;-2.304;2022-07-09T09:20:33;1.97;;;1.73;;
10557;SDS011;5327;47.238;-2.304;2022-07-09T09:22:59;1.70;;;1.60;;
10557;SDS011;5327;47.238;-2.304;2022-07-09T09:25:27;3.00;;;1.63;;
10557;SDS011;5327;47.238;-2.304;2022-07-09T09:27:54;1.67;;;1.57;;
10557;SDS011;5327;47.238;-2.304;2022-07-09T09:30:20;1.93;;;1.50;;
10557;SDS011;5327;47.238;-2.304;2022-07-09T09:32:56;1.70;;;1.60;;
10557;SDS011;5327;47.238;-2.304;2022-07-09T09:35:24;2.50;;;2.00;;
10557;SDS011;5327;47.238;-2.304;2022-07-09T09:37:50;1.43;;;1.33;;
10557;SDS011;5327;47.238;-2.304;2022-07-09T09:40:17;1.70;;;1.60;;
10557;SDS011;5327;47.238;-2.304;2022-07-09T09:42:43;2.53;;;1.90;;
10557;SDS011;5327;47.238;-2.304;2022-07-09T09:45:14;1.53;;;1.43;;
10557;SDS011;5327;47.238;-2.304;2022-07-09T09:47:50;1.60;;;1.50;;
10557;SDS011;5327;47.238;-2.304;2022-07-09T09:50:17;2.27;;;1.60;;
10557;SDS011;5327;47.238;-2.304;2022-07-09T09:52:45;2.20;;;1.40;;
10557;SDS011;5327;47.238;-2.304;2022-07-09T09:55:12;2.07;;;1.93;;
10557;SDS011;5327;47.238;-2.304;2022-07-09T09:57:39;1.87;;;1.77;;
10557;SDS011;5327;47.238;-2.304;2022-07-09T10:00:05;4.10;;;2.00;;
10557;SDS011;5327;47.238;-2.304;2022-07-09T10:02:32;4.07;;;1.90;;
10557;SDS011;5327;47.238;-2.304;2022-07-09T10:05:00;2.80;;;1.77;;
10557;SDS011;5327;47.238;-2.304;2022-07-09T10:07:26;1.80;;;1.70;;
10557;SDS011;5327;47.238;-2.304;2022-07-09T10:09:58;2.83;;;1.87;;
10557;SDS011;5327;47.238;-2.304;2022-07-09T10:12:27;3.90;;;1.70;;
10557;SDS011;5327;47.238;-2.304;2022-07-09T10:14:54;1.37;;;1.27;;
10557;SDS011;5327;47.238;-2.304;2022-07-09T10:17:21;5.30;;;1.47;;
10557;SDS011;5327;47.238;-2.304;2022-07-09T10:22:43;1.77;;;1.60;;
10557;SDS011;5327;47.238;-2.304;2022-07-09T10:25:10;1.70;;;1.60;;
10557;SDS011;5327;47.238;-2.304;2022-07-09T10:27:43;2.33;;;1.70;;
10557;SDS011;5327;47.238;-2.304;2022-07-09T10:30:31;1.93;;;1.30;;
10557;SDS011;5327;47.238;-2.304;2022-07-09T10:33:04;3.80;;;2.00;;
10557;SDS011;5327;47.238;-2.304;2022-07-09T10:35:30;2.50;;;1.73;;
10557;SDS011;5327;47.238;-2.304;2022-07-09T10:37:57;1.90;;;1.70;;
10557;SDS011;5327;47.238;-2.304;2022-07-09T10:40:23;1.90;;;1.80;;
10557;SDS011;5327;47.238;-2.304;2022-07-09T10:43:00;2.27;;;1.93;;
10557;SDS011;5327;47.238;-2.304;2022-07-09T10:45:27;2.90;;;2.10;;
10557;SDS011;5327;47.238;-2.304;2022-07-09T10:47:59;2.60;;;1.93;;
10557;SDS011;5327;47.238;-2.304;2022-07-09T10:50:27;3.00;;;2.20;;
10557;SDS011;5327;47.238;-2.304;2022-07-09T10:52:54;3.90;;;2.20;;
10557;SDS011;5327;47.238;-2.304;2022-07-09T10:55:21;3.30;;;2.13;;
10557;SDS011;5327;47.238;-2.304;2022-07-09T10:57:48;2.43;;;1.90;;
10557;SDS011;5327;47.238;-2.304;2022-07-09T11:00:14;2.80;;;1.83;;
10557;SDS011;5327;47.238;-2.304;2022-07-09T11:02:51;2.87;;;2.20;;
10557;SDS011;5327;47.238;-2.304;2022-07-09T11:05:18;3.07;;;2.00;;
10557;SDS011;5327;47.238;-2.304;2022-07-09T11:07:53;2.50;;;2.30;;
10557;SDS011;5327;47.238;-2.304;2022-07-09T11:10:20;2.30;;;2.10;;
10557;SDS011;5327;47.238;-2.304;2022-07-09T11:12:49;2.97;;;2.20;;
10557;SDS011;5327;47.238;-2.304;2022-07-09T11:15:19;3.60;;;2.10;;
10557;SDS011;5327;47.238;-2.304;2022-07-09T11:20:41;1.57;;;1.47;;
10557;SDS011;5327;47.238;-2.304;2022-07-09T11:23:09;4.30;;;1.93;;
10557;SDS011;5327;47.238;-2.304;2022-07-09T11:25:36;3.03;;;1.83;;
10557;SDS011;5327;47.238;-2.304;2022-07-09T11:28:02;2.00;;;1.90;;
10557;SDS011;5327;47.238;-2.304;2022-07-09T11:30:29;3.23;;;2.10;;
10557;SDS011;5327;47.238;-2.304;2022-07-09T11:32:57;1.90;;;1.80;;
10557;SDS011;5327;47.238;-2.304;2022-07-09T11:35:24;2.60;;;1.40;;
10557;SDS011;5327;47.238;-2.304;2022-07-09T11:37:50;1.60;;;1.50;;
10557;SDS011;5327;47.238;-2.304;2022-07-09T11:40:17;2.00;;;1.80;;
10557;SDS011;5327;47.238;-2.304;2022-07-09T11:42:44;2.57;;;1.53;;
10557;SDS011;5327;47.238;-2.304;2022-07-09T11:45:10;2.40;;;2.13;;
10557;SDS011;5327;47.238;-2.304;2022-07-09T11:47:37;1.90;;;1.63;;
10557;SDS011;5327;47.238;-2.304;2022-07-09T11:50:04;2.60;;;1.47;;
10557;SDS011;5327;47.238;-2.304;2022-07-09T11:52:32;1.60;;;1.50;;
10557;SDS011;5327;47.238;-2.304;2022-07-09T11:57:24;1.43;;;1.33;;
10557;SDS011;5327;47.238;-2.304;2022-07-09T11:59:51;1.40;;;1.30;;
10557;SDS011;5327;47.238;-2.304;2022-07-09T12:02:28;2.80;;;1.20;;
10557;SDS011;5327;47.238;-2.304;2022-07-09T12:04:55;1.83;;;1.60;;
10557;SDS011;5327;47.238;-2.304;2022-07-09T12:07:21;2.13;;;1.63;;
10557;SDS011;5327;47.238;-2.304;2022-07-09T12:09:56;5.20;;;1.93;;
10557;SDS011;5327;47.238;-2.304;2022-07-09T12:12:23;3.20;;;1.57;;
10557;SDS011;5327;47.238;-2.304;2022-07-09T12:14:49;2.50;;;1.67;;
10557;SDS011;5327;47.238;-2.304;2022-07-09T12:17:33;1.97;;;1.60;;
10557;SDS011;5327;47.238;-2.304;2022-07-09T12:19:59;3.53;;;2.03;;
10557;SDS011;5327;47.238;-2.304;2022-07-09T12:22:31;1.87;;;1.77;;
10557;SDS011;5327;47.238;-2.304;2022-07-09T12:24:57;2.10;;;1.93;;
10557;SDS011;5327;47.238;-2.304;2022-07-09T12:27:23;2.47;;;2.20;;
10557;SDS011;5327;47.238;-2.304;2022-07-09T12:29:49;1.80;;;1.70;;
10557;SDS011;5327;47.238;-2.304;2022-07-09T12:32:16;2.17;;;1.77;;
10557;SDS011;5327;47.238;-2.304;2022-07-09T12:34:42;2.10;;;1.90;;
10557;SDS011;5327;47.238;-2.304;2022-07-09T12:37:08;1.87;;;1.77;;
10557;SDS011;5327;47.238;-2.304;2022-07-09T12:39:34;3.20;;;2.30;;
10557;SDS011;5327;47.238;-2.304;2022-07-09T12:42:00;2.47;;;2.23;;
10557;SDS011;5327;47.238;-2.304;2022-07-09T12:44:29;2.87;;;2.60;;
10557;SDS011;5327;47.238;-2.304;2022-07-09T12:46:55;6.00;;;2.23;;
10557;SDS011;5327;47.238;-2.304;2022-07-09T12:49:21;3.60;;;2.50;;
10557;SDS011;5327;47.238;-2.304;2022-07-09T12:51:47;2.63;;;1.93;;
10557;SDS011;5327;47.238;-2.304;2022-07-09T12:54:13;3.27;;;1.60;;
10557;SDS011;5327;47.238;-2.304;2022-07-09T12:56:39;3.07;;;2.33;;
10557;SDS011;5327;47.238;-2.304;2022-07-09T12:59:05;2.20;;;2.00;;
10557;SDS011;5327;47.238;-2.304;2022-07-09T13:01:31;3.30;;;2.23;;
10557;SDS011;5327;47.238;-2.304;2022-07-09T13:03:57;2.30;;;2.10;;
10557;SDS011;5327;47.238;-2.304;2022-07-09T13:06:23;3.53;;;2.10;;
10557;SDS011;5327;47.238;-2.304;2022-07-09T13:09:00;9.30;;;2.70;;
10557;SDS011;5327;47.238;-2.304;2022-07-09T13:11:26;2.03;;;1.93;;
10557;SDS011;5327;47.238;-2.304;2022-07-09T13:13:52;3.67;;;2.40;;
10557;SDS011;5327;47.238;-2.304;2022-07-09T13:16:19;2.40;;;2.17;;
10557;SDS011;5327;47.238;-2.304;2022-07-09T13:18:45;2.47;;;2.23;;
10557;SDS011;5327;47.238;-2.304;2022-07-09T13:21:11;2.23;;;2.13;;
10557;SDS011;5327;47.238;-2.304;2022-07-09T13:23:37;2.60;;;2.40;;
10557;SDS011;5327;47.238;-2.304;2022-07-09T13:26:03;3.60;;;1.90;;
10557;SDS011;5327;47.238;-2.304;2022-07-09T13:28:29;3.23;;;2.20;;
10557;SDS011;5327;47.238;-2.304;2022-07-09T13:30:56;2.50;;;2.27;;
10557;SDS011;5327;47.238;-2.304;2022-07-09T13:33:22;3.20;;;2.20;;
10557;SDS011;5327;47.238;-2.304;2022-07-09T13:35:48;2.63;;;2.43;;
10557;SDS011;5327;47.238;-2.304;2022-07-09T13:38:14;5.50;;;2.33;;
10557;SDS011;5327;47.238;-2.304;2022-07-09T13:40:40;4.00;;;2.47;;
10557;SDS011;5327;47.238;-2.304;2022-07-09T13:43:06;8.43;;;2.47;;
10557;SDS011;5327;47.238;-2.304;2022-07-09T13:45:32;2.00;;;1.90;;
10557;SDS011;5327;47.238;-2.304;2022-07-09T13:47:58;3.57;;;2.07;;
10557;SDS011;5327;47.238;-2.304;2022-07-09T13:50:24;2.70;;;2.50;;
10557;SDS011;5327;47.238;-2.304;2022-07-09T13:52:50;3.10;;;2.10;;
10557;SDS011;5327;47.238;-2.304;2022-07-09T13:55:16;4.23;;;2.93;;
10557;SDS011;5327;47.238;-2.304;2022-07-09T13:57:43;3.70;;;2.20;;
10557;SDS011;5327;47.238;-2.304;2022-07-09T14:00:09;3.10;;;2.20;;
10557;SDS011;5327;47.238;-2.304;2022-07-09T14:02:35;2.53;;;2.00;;
10557;SDS011;5327;47.238;-2.304;2022-07-09T14:05:02;2.37;;;2.17;;
10557;SDS011;5327;47.238;-2.304;2022-07-09T14:07:28;2.53;;;2.33;;
10557;SDS011;5327;47.238;-2.304;2022-07-09T14:09:54;3.33;;;1.97;;
10557;SDS011;5327;47.238;-2.304;2022-07-09T14:12:21;5.90;;;2.37;;
10557;SDS011;5327;47.238;-2.304;2022-07-09T14:14:49;2.43;;;2.23;;
10557;SDS011;5327;47.238;-2.304;2022-07-09T14:17:15;2.80;;;2.13;;
10557;SDS011;5327;47.238;-2.304;2022-07-09T14:19:44;4.07;;;2.63;;
10557;SDS011;5327;47.238;-2.304;2022-07-09T14:22:10;2.70;;;2.50;;
10557;SDS011;5327;47.238;-2.304;2022-07-09T14:24:36;1.90;;;1.63;;
10557;SDS011;5327;47.238;-2.304;2022-07-09T14:27:03;2.63;;;2.43;;
10557;SDS011;5327;47.238;-2.304;2022-07-09T14:29:29;2.50;;;2.37;;
10557;SDS011;5327;47.238;-2.304;2022-07-09T14:31:55;2.80;;;2.30;;
10557;SDS011;5327;47.238;-2.304;2022-07-09T14:34:21;2.30;;;2.00;;
10557;SDS011;5327;47.238;-2.304;2022-07-09T14:36:50;2.50;;;2.30;;
10557;SDS011;5327;47.238;-2.304;2022-07-09T14:39:20;3.43;;;2.60;;
10557;SDS011;5327;47.238;-2.304;2022-07-09T14:41:49;2.90;;;2.40;;
10557;SDS011;5327;47.238;-2.304;2022-07-09T14:44:15;2.37;;;2.13;;
10557;SDS011;5327;47.238;-2.304;2022-07-09T14:46:41;3.00;;;2.67;;
10557;SDS011;5327;47.238;-2.304;2022-07-09T14:49:07;4.73;;;2.73;;
10557;SDS011;5327;47.238;-2.304;2022-07-09T14:51:34;2.40;;;2.20;;
10557;SDS011;5327;47.238;-2.304;2022-07-09T14:54:02;2.17;;;2.00;;